sensor_id;sensor_type;location;lat;lon;timestamp;P1;durP1;ratioP1;P2;durP2;ratioP2
11531;SDS011;5822;51.000;5.874;2023-05-14T00:00:43;15.38;;;14.57;;
11531;SDS011;5822;51.000;5.874;2023-05-14T00:03:08;15.57;;;14.67;;
11531;SDS011;5822;51.000;5.874;2023-05-14T00:05:34;14.50;;;13.80;;
11531;SDS011;5822;51.000;5.874;2023-05-14T00:08:00;14.90;;;14.10;;
11531;SDS011;5822;51.000;5.874;2023-05-14T00:10:25;15.30;;;14.50;;
11531;SDS011;5822;51.000;5.874;2023-05-14T00:12:51;15.13;;;14.32;;
11531;SDS011;5822;51.000;5.874;2023-05-14T00:15:17;14.70;;;14.00;;
11531;SDS011;5822;51.000;5.874;2023-05-14T00:17:43;14.75;;;14.05;;
11531;SDS011;5822;51.000;5.874;2023-05-14T00:20:09;14.63;;;13.93;;
11531;SDS011;5822;51.000;5.874;2023-05-14T00:22:36;14.88;;;14.18;;
11531;SDS011;5822;51.000;5.874;2023-05-14T00:25:02;15.65;;;14.85;;
11531;SDS011;5822;51.000;5.874;2023-05-14T00:27:28;15.20;;;14.40;;
11531;SDS011;5822;51.000;5.874;2023-05-14T00:29:54;14.63;;;13.93;;
11531;SDS011;5822;51.000;5.874;2023-05-14T00:32:19;15.20;;;14.40;;
11531;SDS011;5822;51.000;5.874;2023-05-14T00:34:45;14.70;;;14.00;;
11531;SDS011;5822;51.000;5.874;2023-05-14T00:37:11;15.18;;;14.40;;
11531;SDS011;5822;51.000;5.874;2023-05-14T00:39:36;14.90;;;14.20;;
11531;SDS011;5822;51.000;5.874;2023-05-14T00:42:02;15.73;;;14.93;;
11531;SDS011;5822;51.000;5.874;2023-05-14T00:44:28;15.00;;;14.30;;
11531;SDS011;5822;51.000;5.874;2023-05-14T00:46:53;14.30;;;13.60;;
11531;SDS011;5822;51.000;5.874;2023-05-14T00:49:19;14.00;;;13.40;;
11531;SDS011;5822;51.000;5.874;2023-05-14T00:51:45;14.90;;;14.20;;
11531;SDS011;5822;51.000;5.874;2023-05-14T00:54:14;15.32;;;14.52;;
11531;SDS011;5822;51.000;5.874;2023-05-14T00:56:42;14.70;;;14.00;;
11531;SDS011;5822;51.000;5.874;2023-05-14T00:59:12;13.90;;;13.30;;
11531;SDS011;5822;51.000;5.874;2023-05-14T01:01:38;14.18;;;13.48;;
11531;SDS011;5822;51.000;5.874;2023-05-14T01:04:03;14.10;;;13.40;;
11531;SDS011;5822;51.000;5.874;2023-05-14T01:17:10;15.00;;;14.30;;
11531;SDS011;5822;51.000;5.874;2023-05-14T01:19:40;15.27;;;14.52;;
11531;SDS011;5822;51.000;5.874;2023-05-14T01:22:09;15.68;;;14.88;;
11531;SDS011;5822;51.000;5.874;2023-05-14T01:24:35;15.70;;;14.90;;
11531;SDS011;5822;51.000;5.874;2023-05-14T01:29:49;15.20;;;14.50;;
11531;SDS011;5822;51.000;5.874;2023-05-14T01:32:21;14.90;;;14.20;;
11531;SDS011;5822;51.000;5.874;2023-05-14T01:34:48;14.93;;;14.23;;
11531;SDS011;5822;51.000;5.874;2023-05-14T01:37:16;14.45;;;13.75;;
11531;SDS011;5822;51.000;5.874;2023-05-14T01:39:42;14.38;;;13.68;;
11531;SDS011;5822;51.000;5.874;2023-05-14T01:42:09;14.20;;;13.50;;
11531;SDS011;5822;51.000;5.874;2023-05-14T01:44:34;14.05;;;13.35;;
11531;SDS011;5822;51.000;5.874;2023-05-14T01:47:00;14.88;;;14.18;;
11531;SDS011;5822;51.000;5.874;2023-05-14T01:49:26;14.52;;;13.82;;
11531;SDS011;5822;51.000;5.874;2023-05-14T01:51:52;15.10;;;14.30;;
11531;SDS011;5822;51.000;5.874;2023-05-14T01:54:17;15.40;;;14.60;;
11531;SDS011;5822;51.000;5.874;2023-05-14T01:56:43;15.80;;;15.00;;
11531;SDS011;5822;51.000;5.874;2023-05-14T01:59:08;16.77;;;15.88;;
11531;SDS011;5822;51.000;5.874;2023-05-14T02:01:34;16.35;;;15.55;;
11531;SDS011;5822;51.000;5.874;2023-05-14T02:04:00;15.20;;;14.50;;
11531;SDS011;5822;51.000;5.874;2023-05-14T02:06:25;15.07;;;14.37;;
11531;SDS011;5822;51.000;5.874;2023-05-14T02:08:51;14.68;;;13.98;;
11531;SDS011;5822;51.000;5.874;2023-05-14T02:11:17;14.90;;;14.20;;
11531;SDS011;5822;51.000;5.874;2023-05-14T02:13:42;15.57;;;14.77;;
11531;SDS011;5822;51.000;5.874;2023-05-14T02:16:08;15.70;;;14.90;;
11531;SDS011;5822;51.000;5.874;2023-05-14T02:18:34;15.55;;;14.75;;
11531;SDS011;5822;51.000;5.874;2023-05-14T02:20:59;15.10;;;14.40;;
11531;SDS011;5822;51.000;5.874;2023-05-14T02:23:25;14.40;;;13.70;;
11531;SDS011;5822;51.000;5.874;2023-05-14T02:25:50;14.70;;;14.00;;
11531;SDS011;5822;51.000;5.874;2023-05-14T02:28:16;15.23;;;14.43;;
11531;SDS011;5822;51.000;5.874;2023-05-14T02:30:42;16.52;;;15.73;;
11531;SDS011;5822;51.000;5.874;2023-05-14T02:33:07;16.27;;;15.40;;
11531;SDS011;5822;51.000;5.874;2023-05-14T02:35:33;16.40;;;15.60;;
11531;SDS011;5822;51.000;5.874;2023-05-14T02:37:58;16.60;;;15.80;;
11531;SDS011;5822;51.000;5.874;2023-05-14T02:40:24;15.30;;;14.60;;
11531;SDS011;5822;51.000;5.874;2023-05-14T02:42:50;15.10;;;14.40;;
11531;SDS011;5822;51.000;5.874;2023-05-14T02:45:15;14.47;;;13.77;;
11531;SDS011;5822;51.000;5.874;2023-05-14T02:47:41;14.88;;;14.18;;
11531;SDS011;5822;51.000;5.874;2023-05-14T02:50:07;14.48;;;13.77;;
11531;SDS011;5822;51.000;5.874;2023-05-14T02:52:33;15.33;;;14.60;;
11531;SDS011;5822;51.000;5.874;2023-05-14T02:54:59;16.20;;;15.40;;
11531;SDS011;5822;51.000;5.874;2023-05-14T02:57:25;16.20;;;15.40;;
11531;SDS011;5822;51.000;5.874;2023-05-14T02:59:51;17.20;;;16.37;;
11531;SDS011;5822;51.000;5.874;2023-05-14T03:02:16;16.57;;;15.77;;
11531;SDS011;5822;51.000;5.874;2023-05-14T03:04:42;15.82;;;15.02;;
11531;SDS011;5822;51.000;5.874;2023-05-14T03:07:08;15.07;;;14.38;;
11531;SDS011;5822;51.000;5.874;2023-05-14T03:09:33;14.87;;;14.17;;
11531;SDS011;5822;51.000;5.874;2023-05-14T03:11:59;14.90;;;14.20;;
11531;SDS011;5822;51.000;5.874;2023-05-14T03:14:24;15.80;;;15.00;;
11531;SDS011;5822;51.000;5.874;2023-05-14T03:16:50;15.45;;;14.70;;
11531;SDS011;5822;51.000;5.874;2023-05-14T03:19:16;16.02;;;15.20;;
11531;SDS011;5822;51.000;5.874;2023-05-14T03:21:41;15.97;;;15.17;;
11531;SDS011;5822;51.000;5.874;2023-05-14T03:24:07;15.17;;;14.47;;
11531;SDS011;5822;51.000;5.874;2023-05-14T03:26:32;15.93;;;15.13;;
11531;SDS011;5822;51.000;5.874;2023-05-14T03:28:58;15.60;;;14.90;;
11531;SDS011;5822;51.000;5.874;2023-05-14T03:31:24;15.20;;;14.50;;
11531;SDS011;5822;51.000;5.874;2023-05-14T03:33:49;16.07;;;15.27;;
11531;SDS011;5822;51.000;5.874;2023-05-14T03:36:15;15.80;;;15.00;;
11531;SDS011;5822;51.000;5.874;2023-05-14T03:38:41;15.20;;;14.50;;
11531;SDS011;5822;51.000;5.874;2023-05-14T03:41:07;15.50;;;14.70;;
11531;SDS011;5822;51.000;5.874;2023-05-14T03:43:33;15.80;;;15.00;;
11531;SDS011;5822;51.000;5.874;2023-05-14T03:45:59;15.90;;;15.10;;
11531;SDS011;5822;51.000;5.874;2023-05-14T03:48:24;15.23;;;14.53;;
11531;SDS011;5822;51.000;5.874;2023-05-14T03:50:51;15.10;;;14.40;;
11531;SDS011;5822;51.000;5.874;2023-05-14T03:53:17;15.75;;;14.95;;
11531;SDS011;5822;51.000;5.874;2023-05-14T03:55:42;16.90;;;16.10;;
11531;SDS011;5822;51.000;5.874;2023-05-14T03:58:08;16.23;;;15.43;;
11531;SDS011;5822;51.000;5.874;2023-05-14T04:00:38;16.77;;;15.88;;
11531;SDS011;5822;51.000;5.874;2023-05-14T04:03:05;16.10;;;15.30;;
11531;SDS011;5822;51.000;5.874;2023-05-14T04:05:31;17.10;;;16.20;;
11531;SDS011;5822;51.000;5.874;2023-05-14T04:07:57;16.77;;;15.93;;
11531;SDS011;5822;51.000;5.874;2023-05-14T04:10:22;16.33;;;15.53;;
11531;SDS011;5822;51.000;5.874;2023-05-14T04:12:48;15.83;;;15.03;;
11531;SDS011;5822;51.000;5.874;2023-05-14T04:15:13;15.63;;;14.83;;
11531;SDS011;5822;51.000;5.874;2023-05-14T04:17:39;15.70;;;14.90;;
11531;SDS011;5822;51.000;5.874;2023-05-14T04:20:05;16.38;;;15.57;;
11531;SDS011;5822;51.000;5.874;2023-05-14T04:22:31;16.67;;;15.80;;
11531;SDS011;5822;51.000;5.874;2023-05-14T04:24:57;16.33;;;15.53;;
11531;SDS011;5822;51.000;5.874;2023-05-14T04:27:23;17.15;;;16.25;;
11531;SDS011;5822;51.000;5.874;2023-05-14T04:29:49;17.20;;;16.30;;
11531;SDS011;5822;51.000;5.874;2023-05-14T04:32:14;16.50;;;15.70;;
11531;SDS011;5822;51.000;5.874;2023-05-14T04:34:41;17.20;;;16.30;;
11531;SDS011;5822;51.000;5.874;2023-05-14T04:37:07;16.55;;;15.75;;
11531;SDS011;5822;51.000;5.874;2023-05-14T04:39:33;16.05;;;15.25;;
11531;SDS011;5822;51.000;5.874;2023-05-14T04:41:58;16.17;;;15.30;;
11531;SDS011;5822;51.000;5.874;2023-05-14T04:44:24;17.48;;;16.58;;
11531;SDS011;5822;51.000;5.874;2023-05-14T04:46:50;17.70;;;16.80;;
11531;SDS011;5822;51.000;5.874;2023-05-14T04:49:15;17.97;;;17.03;;
11531;SDS011;5822;51.000;5.874;2023-05-14T04:51:41;17.87;;;16.97;;
11531;SDS011;5822;51.000;5.874;2023-05-14T04:54:07;18.08;;;17.08;;
11531;SDS011;5822;51.000;5.874;2023-05-14T04:56:32;17.17;;;16.27;;
11531;SDS011;5822;51.000;5.874;2023-05-14T04:58:58;17.90;;;17.00;;
11531;SDS011;5822;51.000;5.874;2023-05-14T05:01:23;17.30;;;16.40;;
11531;SDS011;5822;51.000;5.874;2023-05-14T05:03:49;17.52;;;16.63;;
11531;SDS011;5822;51.000;5.874;2023-05-14T05:06:15;17.70;;;16.80;;
11531;SDS011;5822;51.000;5.874;2023-05-14T05:08:40;17.23;;;16.33;;
11531;SDS011;5822;51.000;5.874;2023-05-14T05:11:06;17.03;;;16.13;;
11531;SDS011;5822;51.000;5.874;2023-05-14T05:13:32;17.20;;;16.30;;
11531;SDS011;5822;51.000;5.874;2023-05-14T05:15:57;17.65;;;16.75;;
11531;SDS011;5822;51.000;5.874;2023-05-14T05:18:23;17.90;;;17.00;;
11531;SDS011;5822;51.000;5.874;2023-05-14T05:20:48;17.33;;;16.43;;
11531;SDS011;5822;51.000;5.874;2023-05-14T05:23:14;17.67;;;16.77;;
11531;SDS011;5822;51.000;5.874;2023-05-14T05:25:40;17.98;;;17.08;;
11531;SDS011;5822;51.000;5.874;2023-05-14T05:28:05;18.35;;;17.35;;
11531;SDS011;5822;51.000;5.874;2023-05-14T05:30:31;18.77;;;17.77;;
11531;SDS011;5822;51.000;5.874;2023-05-14T05:32:57;18.37;;;17.37;;
11531;SDS011;5822;51.000;5.874;2023-05-14T05:35:23;18.30;;;17.30;;
11531;SDS011;5822;51.000;5.874;2023-05-14T05:37:48;17.95;;;17.05;;
11531;SDS011;5822;51.000;5.874;2023-05-14T05:40:14;17.50;;;16.60;;
11531;SDS011;5822;51.000;5.874;2023-05-14T05:42:40;16.95;;;16.15;;
11531;SDS011;5822;51.000;5.874;2023-05-14T05:45:06;16.80;;;16.00;;
11531;SDS011;5822;51.000;5.874;2023-05-14T05:47:32;18.85;;;17.85;;
11531;SDS011;5822;51.000;5.874;2023-05-14T05:49:58;18.65;;;17.65;;
11531;SDS011;5822;51.000;5.874;2023-05-14T05:52:24;18.30;;;17.30;;
11531;SDS011;5822;51.000;5.874;2023-05-14T05:54:50;18.30;;;17.30;;
11531;SDS011;5822;51.000;5.874;2023-05-14T05:57:15;17.60;;;16.70;;
11531;SDS011;5822;51.000;5.874;2023-05-14T05:59:41;17.37;;;16.47;;
11531;SDS011;5822;51.000;5.874;2023-05-14T06:02:07;18.42;;;17.42;;
11531;SDS011;5822;51.000;5.874;2023-05-14T06:04:32;20.52;;;19.52;;
11531;SDS011;5822;51.000;5.874;2023-05-14T06:06:58;20.37;;;19.30;;
11531;SDS011;5822;51.000;5.874;2023-05-14T06:09:24;19.13;;;18.23;;
11531;SDS011;5822;51.000;5.874;2023-05-14T06:11:49;19.98;;;18.98;;
11531;SDS011;5822;51.000;5.874;2023-05-14T06:14:15;20.33;;;19.33;;
11531;SDS011;5822;51.000;5.874;2023-05-14T06:16:40;19.90;;;18.90;;
11531;SDS011;5822;51.000;5.874;2023-05-14T06:19:06;20.47;;;19.47;;
11531;SDS011;5822;51.000;5.874;2023-05-14T06:21:32;20.02;;;19.02;;
11531;SDS011;5822;51.000;5.874;2023-05-14T06:23:58;22.48;;;21.42;;
11531;SDS011;5822;51.000;5.874;2023-05-14T06:26:24;25.88;;;24.67;;
11531;SDS011;5822;51.000;5.874;2023-05-14T06:28:50;20.90;;;19.90;;
11531;SDS011;5822;51.000;5.874;2023-05-14T06:31:16;19.73;;;18.73;;
11531;SDS011;5822;51.000;5.874;2023-05-14T06:33:42;21.23;;;20.13;;
11531;SDS011;5822;51.000;5.874;2023-05-14T06:36:09;21.45;;;20.33;;
11531;SDS011;5822;51.000;5.874;2023-05-14T06:38:35;20.85;;;19.85;;
11531;SDS011;5822;51.000;5.874;2023-05-14T06:41:01;21.40;;;20.30;;
11531;SDS011;5822;51.000;5.874;2023-05-14T06:43:27;20.77;;;19.77;;
11531;SDS011;5822;51.000;5.874;2023-05-14T06:45:53;22.83;;;21.73;;
11531;SDS011;5822;51.000;5.874;2023-05-14T06:48:19;20.60;;;19.60;;
11531;SDS011;5822;51.000;5.874;2023-05-14T06:50:45;20.70;;;19.70;;
11531;SDS011;5822;51.000;5.874;2023-05-14T06:53:12;21.17;;;20.07;;
11531;SDS011;5822;51.000;5.874;2023-05-14T06:55:38;21.93;;;20.83;;
11531;SDS011;5822;51.000;5.874;2023-05-14T06:58:06;22.70;;;21.50;;
11531;SDS011;5822;51.000;5.874;2023-05-14T07:00:32;23.17;;;21.98;;
11531;SDS011;5822;51.000;5.874;2023-05-14T07:02:57;21.65;;;20.55;;
11531;SDS011;5822;51.000;5.874;2023-05-14T07:05:23;20.33;;;19.33;;
11531;SDS011;5822;51.000;5.874;2023-05-14T07:07:49;20.67;;;19.67;;
11531;SDS011;5822;51.000;5.874;2023-05-14T07:10:15;19.67;;;18.67;;
11531;SDS011;5822;51.000;5.874;2023-05-14T07:12:40;19.60;;;18.60;;
11531;SDS011;5822;51.000;5.874;2023-05-14T07:15:06;21.15;;;20.05;;
11531;SDS011;5822;51.000;5.874;2023-05-14T07:17:32;20.33;;;19.33;;
11531;SDS011;5822;51.000;5.874;2023-05-14T07:19:58;20.65;;;19.55;;
11531;SDS011;5822;51.000;5.874;2023-05-14T07:22:24;19.58;;;18.58;;
11531;SDS011;5822;51.000;5.874;2023-05-14T07:24:49;20.63;;;19.60;;
11531;SDS011;5822;51.000;5.874;2023-05-14T07:27:15;19.73;;;18.73;;
11531;SDS011;5822;51.000;5.874;2023-05-14T07:29:41;20.63;;;19.53;;
11531;SDS011;5822;51.000;5.874;2023-05-14T07:32:07;20.93;;;19.83;;
11531;SDS011;5822;51.000;5.874;2023-05-14T07:34:33;20.33;;;19.33;;
11531;SDS011;5822;51.000;5.874;2023-05-14T07:36:58;19.10;;;18.17;;
11531;SDS011;5822;51.000;5.874;2023-05-14T07:39:25;20.30;;;19.30;;
11531;SDS011;5822;51.000;5.874;2023-05-14T07:41:51;19.30;;;18.33;;
11531;SDS011;5822;51.000;5.874;2023-05-14T07:44:18;19.30;;;18.30;;
11531;SDS011;5822;51.000;5.874;2023-05-14T07:46:44;20.10;;;19.10;;
11531;SDS011;5822;51.000;5.874;2023-05-14T07:49:10;19.70;;;18.70;;
11531;SDS011;5822;51.000;5.874;2023-05-14T07:51:36;19.80;;;18.80;;
11531;SDS011;5822;51.000;5.874;2023-05-14T07:54:02;19.75;;;18.75;;
11531;SDS011;5822;51.000;5.874;2023-05-14T07:56:27;19.50;;;18.50;;
11531;SDS011;5822;51.000;5.874;2023-05-14T07:58:53;21.30;;;20.20;;
11531;SDS011;5822;51.000;5.874;2023-05-14T08:01:19;19.90;;;18.90;;
11531;SDS011;5822;51.000;5.874;2023-05-14T08:03:44;21.45;;;20.35;;
11531;SDS011;5822;51.000;5.874;2023-05-14T08:06:10;21.40;;;20.30;;
11531;SDS011;5822;51.000;5.874;2023-05-14T08:08:36;22.38;;;21.23;;
11531;SDS011;5822;51.000;5.874;2023-05-14T08:11:02;23.10;;;21.90;;
11531;SDS011;5822;51.000;5.874;2023-05-14T08:13:27;21.40;;;20.30;;
11531;SDS011;5822;51.000;5.874;2023-05-14T08:15:53;23.23;;;21.93;;
11531;SDS011;5822;51.000;5.874;2023-05-14T08:18:19;21.33;;;20.23;;
11531;SDS011;5822;51.000;5.874;2023-05-14T08:20:45;21.60;;;20.50;;
11531;SDS011;5822;51.000;5.874;2023-05-14T08:23:11;22.50;;;21.30;;
11531;SDS011;5822;51.000;5.874;2023-05-14T08:25:36;21.67;;;20.58;;
11531;SDS011;5822;51.000;5.874;2023-05-14T08:28:02;20.42;;;19.42;;
11531;SDS011;5822;51.000;5.874;2023-05-14T08:30:28;20.92;;;19.88;;
11531;SDS011;5822;51.000;5.874;2023-05-14T08:32:54;20.85;;;19.85;;
11531;SDS011;5822;51.000;5.874;2023-05-14T08:35:20;20.98;;;19.88;;
11531;SDS011;5822;51.000;5.874;2023-05-14T08:37:45;21.50;;;20.40;;
11531;SDS011;5822;51.000;5.874;2023-05-14T08:40:11;21.93;;;20.83;;
11531;SDS011;5822;51.000;5.874;2023-05-14T08:42:37;21.08;;;19.98;;
11531;SDS011;5822;51.000;5.874;2023-05-14T08:45:17;20.08;;;19.08;;
11531;SDS011;5822;51.000;5.874;2023-05-14T08:47:52;20.55;;;19.55;;
11531;SDS011;5822;51.000;5.874;2023-05-14T08:50:21;23.10;;;21.90;;
11531;SDS011;5822;51.000;5.874;2023-05-14T08:52:47;25.25;;;23.85;;
11531;SDS011;5822;51.000;5.874;2023-05-14T08:55:13;24.25;;;22.95;;
11531;SDS011;5822;51.000;5.874;2023-05-14T08:57:39;21.70;;;20.60;;
11531;SDS011;5822;51.000;5.874;2023-05-14T09:00:05;21.75;;;20.63;;
11531;SDS011;5822;51.000;5.874;2023-05-14T09:02:32;26.48;;;24.98;;
11531;SDS011;5822;51.000;5.874;2023-05-14T09:04:59;24.60;;;23.30;;
11531;SDS011;5822;51.000;5.874;2023-05-14T09:07:26;23.85;;;22.55;;
11531;SDS011;5822;51.000;5.874;2023-05-14T09:09:52;22.63;;;21.42;;
11531;SDS011;5822;51.000;5.874;2023-05-14T09:12:18;20.30;;;19.30;;
11531;SDS011;5822;51.000;5.874;2023-05-14T09:14:44;21.10;;;20.00;;
11531;SDS011;5822;51.000;5.874;2023-05-14T09:17:11;20.38;;;19.38;;
11531;SDS011;5822;51.000;5.874;2023-05-14T09:19:38;20.25;;;19.25;;
11531;SDS011;5822;51.000;5.874;2023-05-14T09:22:07;20.02;;;19.02;;
11531;SDS011;5822;51.000;5.874;2023-05-14T09:24:37;20.67;;;19.58;;
11531;SDS011;5822;51.000;5.874;2023-05-14T09:27:03;21.17;;;20.08;;
11531;SDS011;5822;51.000;5.874;2023-05-14T09:29:30;20.77;;;19.67;;
11531;SDS011;5822;51.000;5.874;2023-05-14T09:31:57;20.13;;;19.08;;
11531;SDS011;5822;51.000;5.874;2023-05-14T09:37:00;21.50;;;20.35;;
11531;SDS011;5822;51.000;5.874;2023-05-14T09:39:27;20.73;;;19.63;;
11531;SDS011;5822;51.000;5.874;2023-05-14T09:41:53;19.90;;;18.90;;
11531;SDS011;5822;51.000;5.874;2023-05-14T09:44:20;21.02;;;19.92;;
11531;SDS011;5822;51.000;5.874;2023-05-14T09:46:46;19.65;;;18.65;;
11531;SDS011;5822;51.000;5.874;2023-05-14T09:49:12;18.98;;;18.08;;
11531;SDS011;5822;51.000;5.874;2023-05-14T09:51:38;19.73;;;18.73;;
11531;SDS011;5822;51.000;5.874;2023-05-14T09:54:05;21.08;;;19.98;;
11531;SDS011;5822;51.000;5.874;2023-05-14T09:56:31;19.80;;;18.80;;
11531;SDS011;5822;51.000;5.874;2023-05-14T09:58:57;21.25;;;20.20;;
11531;SDS011;5822;51.000;5.874;2023-05-14T10:01:23;22.47;;;21.17;;
11531;SDS011;5822;51.000;5.874;2023-05-14T10:03:51;18.92;;;17.92;;
11531;SDS011;5822;51.000;5.874;2023-05-14T10:06:18;18.60;;;17.70;;
11531;SDS011;5822;51.000;5.874;2023-05-14T10:08:51;19.55;;;18.55;;
11531;SDS011;5822;51.000;5.874;2023-05-14T10:11:21;21.13;;;20.13;;
11531;SDS011;5822;51.000;5.874;2023-05-14T10:13:54;22.52;;;21.42;;
11531;SDS011;5822;51.000;5.874;2023-05-14T10:16:32;22.92;;;21.83;;
11531;SDS011;5822;51.000;5.874;2023-05-14T10:19:09;22.75;;;21.65;;
11531;SDS011;5822;51.000;5.874;2023-05-14T10:21:36;19.07;;;18.13;;
11531;SDS011;5822;51.000;5.874;2023-05-14T10:24:05;20.63;;;19.53;;
11531;SDS011;5822;51.000;5.874;2023-05-14T10:26:34;19.48;;;18.48;;
11531;SDS011;5822;51.000;5.874;2023-05-14T10:29:03;20.70;;;19.70;;
11531;SDS011;5822;51.000;5.874;2023-05-14T10:37:11;19.98;;;18.88;;
11531;SDS011;5822;51.000;5.874;2023-05-14T10:39:46;19.75;;;18.75;;
11531;SDS011;5822;51.000;5.874;2023-05-14T10:42:21;20.42;;;19.42;;
11531;SDS011;5822;51.000;5.874;2023-05-14T10:44:50;21.48;;;20.38;;
11531;SDS011;5822;51.000;5.874;2023-05-14T10:47:22;19.30;;;18.30;;
11531;SDS011;5822;51.000;5.874;2023-05-14T10:49:51;18.80;;;17.90;;
11531;SDS011;5822;51.000;5.874;2023-05-14T10:52:18;20.88;;;19.77;;
11531;SDS011;5822;51.000;5.874;2023-05-14T10:54:51;20.60;;;19.50;;
11531;SDS011;5822;51.000;5.874;2023-05-14T10:57:19;20.05;;;19.05;;
11531;SDS011;5822;51.000;5.874;2023-05-14T10:59:46;18.30;;;17.40;;
11531;SDS011;5822;51.000;5.874;2023-05-14T11:05:04;18.20;;;17.30;;
11531;SDS011;5822;51.000;5.874;2023-05-14T11:07:36;20.23;;;19.20;;
11531;SDS011;5822;51.000;5.874;2023-05-14T11:12:36;22.87;;;21.77;;
11531;SDS011;5822;51.000;5.874;2023-05-14T11:15:05;20.33;;;19.33;;
11531;SDS011;5822;51.000;5.874;2023-05-14T11:17:33;19.48;;;18.50;;
11531;SDS011;5822;51.000;5.874;2023-05-14T11:20:00;19.65;;;18.75;;
11531;SDS011;5822;51.000;5.874;2023-05-14T11:22:26;19.20;;;18.20;;
11531;SDS011;5822;51.000;5.874;2023-05-14T11:24:52;21.67;;;20.58;;
11531;SDS011;5822;51.000;5.874;2023-05-14T11:27:18;20.67;;;19.67;;
11531;SDS011;5822;51.000;5.874;2023-05-14T11:29:45;22.13;;;21.02;;
11531;SDS011;5822;51.000;5.874;2023-05-14T11:32:12;21.63;;;20.63;;
11531;SDS011;5822;51.000;5.874;2023-05-14T11:34:39;21.10;;;20.10;;
11531;SDS011;5822;51.000;5.874;2023-05-14T11:37:06;20.55;;;19.55;;
11531;SDS011;5822;51.000;5.874;2023-05-14T11:39:32;20.40;;;19.40;;
11531;SDS011;5822;51.000;5.874;2023-05-14T11:41:59;22.03;;;20.93;;
11531;SDS011;5822;51.000;5.874;2023-05-14T11:44:27;23.50;;;22.30;;
11531;SDS011;5822;51.000;5.874;2023-05-14T11:46:56;21.65;;;20.55;;
11531;SDS011;5822;51.000;5.874;2023-05-14T11:49:22;20.88;;;19.88;;
11531;SDS011;5822;51.000;5.874;2023-05-14T11:51:48;17.98;;;17.08;;
11531;SDS011;5822;51.000;5.874;2023-05-14T11:54:15;18.20;;;17.30;;
11531;SDS011;5822;51.000;5.874;2023-05-14T11:56:40;18.13;;;17.23;;
11531;SDS011;5822;51.000;5.874;2023-05-14T11:59:06;18.73;;;17.83;;
11531;SDS011;5822;51.000;5.874;2023-05-14T12:01:37;18.92;;;17.98;;
11531;SDS011;5822;51.000;5.874;2023-05-14T12:04:03;20.95;;;19.95;;
11531;SDS011;5822;51.000;5.874;2023-05-14T12:06:29;18.60;;;17.70;;
11531;SDS011;5822;51.000;5.874;2023-05-14T12:08:56;18.20;;;17.30;;
11531;SDS011;5822;51.000;5.874;2023-05-14T12:11:22;19.33;;;18.43;;
11531;SDS011;5822;51.000;5.874;2023-05-14T12:13:47;19.83;;;18.83;;
11531;SDS011;5822;51.000;5.874;2023-05-14T12:16:13;21.30;;;20.20;;
11531;SDS011;5822;51.000;5.874;2023-05-14T12:18:39;20.87;;;19.77;;
11531;SDS011;5822;51.000;5.874;2023-05-14T12:21:04;21.33;;;20.33;;
11531;SDS011;5822;51.000;5.874;2023-05-14T12:23:33;19.30;;;18.30;;
11531;SDS011;5822;51.000;5.874;2023-05-14T12:26:02;20.38;;;19.38;;
11531;SDS011;5822;51.000;5.874;2023-05-14T12:28:32;20.70;;;19.60;;
11531;SDS011;5822;51.000;5.874;2023-05-14T12:30:58;18.80;;;17.90;;
11531;SDS011;5822;51.000;5.874;2023-05-14T12:33:27;18.47;;;17.57;;
11531;SDS011;5822;51.000;5.874;2023-05-14T12:35:53;17.40;;;16.52;;
11531;SDS011;5822;51.000;5.874;2023-05-14T12:38:21;17.23;;;16.40;;
11531;SDS011;5822;51.000;5.874;2023-05-14T12:40:47;16.60;;;15.80;;
11531;SDS011;5822;51.000;5.874;2023-05-14T12:43:12;17.50;;;16.70;;
11531;SDS011;5822;51.000;5.874;2023-05-14T12:45:38;17.40;;;16.60;;
11531;SDS011;5822;51.000;5.874;2023-05-14T12:48:05;17.67;;;16.83;;
11531;SDS011;5822;51.000;5.874;2023-05-14T12:50:30;17.55;;;16.75;;
11531;SDS011;5822;51.000;5.874;2023-05-14T12:52:56;17.13;;;16.33;;
11531;SDS011;5822;51.000;5.874;2023-05-14T12:55:21;15.73;;;15.00;;
11531;SDS011;5822;51.000;5.874;2023-05-14T12:57:47;16.00;;;15.20;;
11531;SDS011;5822;51.000;5.874;2023-05-14T13:00:13;15.83;;;15.03;;
11531;SDS011;5822;51.000;5.874;2023-05-14T13:02:39;16.45;;;15.65;;
11531;SDS011;5822;51.000;5.874;2023-05-14T13:05:05;16.65;;;15.85;;
11531;SDS011;5822;51.000;5.874;2023-05-14T13:07:31;17.00;;;16.20;;
11531;SDS011;5822;51.000;5.874;2023-05-14T13:09:57;17.17;;;16.38;;
11531;SDS011;5822;51.000;5.874;2023-05-14T13:12:23;17.70;;;16.90;;
11531;SDS011;5822;51.000;5.874;2023-05-14T13:14:48;18.17;;;17.20;;
11531;SDS011;5822;51.000;5.874;2023-05-14T13:17:14;18.23;;;17.33;;
11531;SDS011;5822;51.000;5.874;2023-05-14T13:19:40;18.23;;;17.33;;
11531;SDS011;5822;51.000;5.874;2023-05-14T13:22:06;17.93;;;17.03;;
11531;SDS011;5822;51.000;5.874;2023-05-14T13:24:31;17.73;;;16.83;;
11531;SDS011;5822;51.000;5.874;2023-05-14T13:26:57;18.02;;;17.13;;
11531;SDS011;5822;51.000;5.874;2023-05-14T13:29:23;19.60;;;18.60;;
11531;SDS011;5822;51.000;5.874;2023-05-14T13:31:49;20.13;;;19.13;;
11531;SDS011;5822;51.000;5.874;2023-05-14T13:34:17;17.70;;;16.80;;
11531;SDS011;5822;51.000;5.874;2023-05-14T13:36:43;18.60;;;17.60;;
11531;SDS011;5822;51.000;5.874;2023-05-14T13:39:09;17.30;;;16.40;;
11531;SDS011;5822;51.000;5.874;2023-05-14T13:41:37;17.92;;;17.02;;
11531;SDS011;5822;51.000;5.874;2023-05-14T13:44:03;18.80;;;17.80;;
11531;SDS011;5822;51.000;5.874;2023-05-14T13:46:29;19.97;;;18.97;;
11531;SDS011;5822;51.000;5.874;2023-05-14T13:48:54;20.08;;;19.08;;
11531;SDS011;5822;51.000;5.874;2023-05-14T13:51:21;21.42;;;20.33;;
11531;SDS011;5822;51.000;5.874;2023-05-14T13:53:47;21.20;;;20.10;;
11531;SDS011;5822;51.000;5.874;2023-05-14T13:56:13;22.10;;;21.00;;
11531;SDS011;5822;51.000;5.874;2023-05-14T13:58:38;21.77;;;20.67;;
11531;SDS011;5822;51.000;5.874;2023-05-14T14:01:04;21.07;;;20.07;;
11531;SDS011;5822;51.000;5.874;2023-05-14T14:03:30;20.73;;;19.73;;
11531;SDS011;5822;51.000;5.874;2023-05-14T14:05:55;20.37;;;19.37;;
11531;SDS011;5822;51.000;5.874;2023-05-14T14:08:21;20.40;;;19.40;;
11531;SDS011;5822;51.000;5.874;2023-05-14T14:10:47;20.42;;;19.42;;
11531;SDS011;5822;51.000;5.874;2023-05-14T14:13:12;21.03;;;19.93;;
11531;SDS011;5822;51.000;5.874;2023-05-14T14:15:38;21.08;;;19.98;;
11531;SDS011;5822;51.000;5.874;2023-05-14T14:18:04;21.52;;;20.42;;
11531;SDS011;5822;51.000;5.874;2023-05-14T14:20:30;21.47;;;20.37;;
11531;SDS011;5822;51.000;5.874;2023-05-14T14:22:56;21.45;;;20.35;;
11531;SDS011;5822;51.000;5.874;2023-05-14T14:25:21;22.67;;;21.48;;
11531;SDS011;5822;51.000;5.874;2023-05-14T14:27:47;21.87;;;20.77;;
11531;SDS011;5822;51.000;5.874;2023-05-14T14:30:13;20.95;;;19.85;;
11531;SDS011;5822;51.000;5.874;2023-05-14T14:32:42;20.52;;;19.52;;
11531;SDS011;5822;51.000;5.874;2023-05-14T14:35:12;20.20;;;19.20;;
11531;SDS011;5822;51.000;5.874;2023-05-14T14:37:39;20.83;;;19.83;;
11531;SDS011;5822;51.000;5.874;2023-05-14T14:40:07;21.07;;;19.97;;
11531;SDS011;5822;51.000;5.874;2023-05-14T14:42:36;19.67;;;18.58;;
11531;SDS011;5822;51.000;5.874;2023-05-14T14:45:05;19.93;;;18.83;;
11531;SDS011;5822;51.000;5.874;2023-05-14T14:47:31;19.70;;;18.60;;
11531;SDS011;5822;51.000;5.874;2023-05-14T14:49:57;20.63;;;19.53;;
11531;SDS011;5822;51.000;5.874;2023-05-14T14:52:23;21.92;;;20.73;;
11531;SDS011;5822;51.000;5.874;2023-05-14T14:54:50;23.80;;;22.50;;